sensor_id;sensor_type;location;lat;lon;timestamp;pressure;altitude;pressure_sealevel;temperature
78369;BMP280;71113;43.092;-89.268;2023-12-04T00:01:22;97606.94;;;20.75
78369;BMP280;71113;43.092;-89.268;2023-12-04T00:03:48;97601.66;;;20.75
78369;BMP280;71113;43.092;-89.268;2023-12-04T00:06:15;97597.88;;;20.76
78369;BMP280;71113;43.092;-89.268;2023-12-04T00:08:41;97598.31;;;20.78
78369;BMP280;71113;43.092;-89.268;2023-12-04T00:11:09;97605.97;;;20.83
78369;BMP280;71113;43.092;-89.268;2023-12-04T00:13:36;97606.81;;;20.87
78369;BMP280;71113;43.092;-89.268;2023-12-04T00:16:03;97605.72;;;20.88
78369;BMP280;71113;43.092;-89.268;2023-12-04T00:18:30;97604.56;;;20.86
78369;BMP280;71113;43.092;-89.268;2023-12-04T00:20:56;97593.16;;;20.85
78369;BMP280;71113;43.092;-89.268;2023-12-04T00:23:22;97599.50;;;20.81
78369;BMP280;71113;43.092;-89.268;2023-12-04T00:25:48;97596.41;;;20.79
78369;BMP280;71113;43.092;-89.268;2023-12-04T00:28:15;97595.22;;;20.76
78369;BMP280;71113;43.092;-89.268;2023-12-04T00:30:41;97601.31;;;20.77
78369;BMP280;71113;43.092;-89.268;2023-12-04T00:33:08;97597.44;;;20.74
78369;BMP280;71113;43.092;-89.268;2023-12-04T00:35:34;97604.22;;;20.71
78369;BMP280;71113;43.092;-89.268;2023-12-04T00:38:01;97603.38;;;20.67
78369;BMP280;71113;43.092;-89.268;2023-12-04T00:40:27;97601.06;;;20.66
78369;BMP280;71113;43.092;-89.268;2023-12-04T00:42:53;97600.66;;;20.64
78369;BMP280;71113;43.092;-89.268;2023-12-04T00:45:20;97599.63;;;20.68
78369;BMP280;71113;43.092;-89.268;2023-12-04T00:47:47;97601.88;;;20.70
78369;BMP280;71113;43.092;-89.268;2023-12-04T00:50:13;97604.22;;;20.71
78369;BMP280;71113;43.092;-89.268;2023-12-04T00:52:39;97596.28;;;20.71
78369;BMP280;71113;43.092;-89.268;2023-12-04T00:55:06;97600.47;;;20.72
78369;BMP280;71113;43.092;-89.268;2023-12-04T00:57:32;97606.94;;;20.75
78369;BMP280;71113;43.092;-89.268;2023-12-04T00:59:58;97612.25;;;20.75
78369;BMP280;71113;43.092;-89.268;2023-12-04T01:02:24;97618.31;;;20.75
78369;BMP280;71113;43.092;-89.268;2023-12-04T01:04:51;97616.44;;;20.76
78369;BMP280;71113;43.092;-89.268;2023-12-04T01:07:17;97617.97;;;20.77
78369;BMP280;71113;43.092;-89.268;2023-12-04T01:09:43;97609.25;;;20.77
78369;BMP280;71113;43.092;-89.268;2023-12-04T01:12:09;97619.50;;;20.78
78369;BMP280;71113;43.092;-89.268;2023-12-04T01:14:36;97618.41;;;20.79
78369;BMP280;71113;43.092;-89.268;2023-12-04T01:17:04;97627.88;;;20.80
78369;BMP280;71113;43.092;-89.268;2023-12-04T01:19:30;97619.94;;;20.80
78369;BMP280;71113;43.092;-89.268;2023-12-04T01:21:56;97626.78;;;20.81
78369;BMP280;71113;43.092;-89.268;2023-12-04T01:24:22;97637.03;;;20.83
78369;BMP280;71113;43.092;-89.268;2023-12-04T01:26:49;97635.47;;;20.82
78369;BMP280;71113;43.092;-89.268;2023-12-04T01:29:16;97641.22;;;20.84
78369;BMP280;71113;43.092;-89.268;2023-12-04T01:31:41;97639.34;;;20.84
78369;BMP280;71113;43.092;-89.268;2023-12-04T01:34:08;97634.03;;;20.84
78369;BMP280;71113;43.092;-89.268;2023-12-04T01:36:34;97622.66;;;20.84
78369;BMP280;71113;43.092;-89.268;2023-12-04T01:39:00;97629.50;;;20.85
78369;BMP280;71113;43.092;-89.268;2023-12-04T01:41:26;97632.50;;;20.83
78369;BMP280;71113;43.092;-89.268;2023-12-04T01:43:52;97637.78;;;20.83
78369;BMP280;71113;43.092;-89.268;2023-12-04T01:46:19;97640.38;;;20.80
78369;BMP280;71113;43.092;-89.268;2023-12-04T01:48:45;97657.38;;;20.79
78369;BMP280;71113;43.092;-89.268;2023-12-04T01:51:12;97648.66;;;20.78
78369;BMP280;71113;43.092;-89.268;2023-12-04T01:53:40;97656.53;;;20.74
78369;BMP280;71113;43.092;-89.268;2023-12-04T01:56:06;97655.69;;;20.70
78369;BMP280;71113;43.092;-89.268;2023-12-04T01:58:33;97659.03;;;20.67
78369;BMP280;71113;43.092;-89.268;2023-12-04T02:00:59;97668.44;;;20.65
78369;BMP280;71113;43.092;-89.268;2023-12-04T02:03:25;97661.53;;;20.60
78369;BMP280;71113;43.092;-89.268;2023-12-04T02:05:51;97666.06;;;20.60
78369;BMP280;71113;43.092;-89.268;2023-12-04T02:08:18;97672.78;;;20.57
78369;BMP280;71113;43.092;-89.268;2023-12-04T02:10:44;97676.47;;;20.53
78369;BMP280;71113;43.092;-89.268;2023-12-04T02:13:10;97670.41;;;20.52
78369;BMP280;71113;43.092;-89.268;2023-12-04T02:15:36;97669.66;;;20.52
78369;BMP280;71113;43.092;-89.268;2023-12-04T02:18:03;97671.09;;;20.49
78369;BMP280;71113;43.092;-89.268;2023-12-04T02:20:33;97665.72;;;20.46
78369;BMP280;71113;43.092;-89.268;2023-12-04T02:23:00;97677.41;;;20.44
78369;BMP280;71113;43.092;-89.268;2023-12-04T02:25:27;97673.91;;;20.40
78369;BMP280;71113;43.092;-89.268;2023-12-04T02:27:54;97658.72;;;20.37
78369;BMP280;71113;43.092;-89.268;2023-12-04T02:30:23;97664.00;;;20.37
78369;BMP280;71113;43.092;-89.268;2023-12-04T02:32:51;97658.78;;;20.41
78369;BMP280;71113;43.092;-89.268;2023-12-04T02:35:23;97661.53;;;20.44
78369;BMP280;71113;43.092;-89.268;2023-12-04T02:37:51;97663.91;;;20.50
78369;BMP280;71113;43.092;-89.268;2023-12-04T02:40:17;97665.53;;;20.54
78369;BMP280;71113;43.092;-89.268;2023-12-04T02:42:44;97659.22;;;20.59
78369;BMP280;71113;43.092;-89.268;2023-12-04T02:45:11;97661.53;;;20.60
78369;BMP280;71113;43.092;-89.268;2023-12-04T02:47:38;97662.97;;;20.58
78369;BMP280;71113;43.092;-89.268;2023-12-04T02:50:06;97666.28;;;20.55
78369;BMP280;71113;43.092;-89.268;2023-12-04T02:52:33;97673.41;;;20.51
78369;BMP280;71113;43.092;-89.268;2023-12-04T02:55:00;97666.16;;;20.48
78369;BMP280;71113;43.092;-89.268;2023-12-04T02:57:26;97666.81;;;20.44
78369;BMP280;71113;43.092;-89.268;2023-12-04T02:59:53;97670.16;;;20.41
78369;BMP280;71113;43.092;-89.268;2023-12-04T03:02:19;97667.09;;;20.39
78369;BMP280;71113;43.092;-89.268;2023-12-04T03:04:46;97669.31;;;20.37
78369;BMP280;71113;43.092;-89.268;2023-12-04T03:07:13;97663.16;;;20.33
78369;BMP280;71113;43.092;-89.268;2023-12-04T03:09:40;97664.25;;;20.32
78369;BMP280;71113;43.092;-89.268;2023-12-04T03:12:07;97674.78;;;20.29
78369;BMP280;71113;43.092;-89.268;2023-12-04T03:14:34;97679.31;;;20.28
78369;BMP280;71113;43.092;-89.268;2023-12-04T03:17:00;97675.81;;;20.24
78369;BMP280;71113;43.092;-89.268;2023-12-04T03:19:27;97674.59;;;20.22
78369;BMP280;71113;43.092;-89.268;2023-12-04T03:21:53;97674.16;;;20.20
78369;BMP280;71113;43.092;-89.268;2023-12-04T03:24:19;97674.06;;;20.16
78369;BMP280;71113;43.092;-89.268;2023-12-04T03:26:45;97678.28;;;20.17
78369;BMP280;71113;43.092;-89.268;2023-12-04T03:29:11;97683.13;;;20.15
78369;BMP280;71113;43.092;-89.268;2023-12-04T03:31:38;97680.06;;;20.13
78369;BMP280;71113;43.092;-89.268;2023-12-04T03:34:05;97684.59;;;20.13
78369;BMP280;71113;43.092;-89.268;2023-12-04T03:36:31;97682.63;;;20.09
78369;BMP280;71113;43.092;-89.268;2023-12-04T03:38:57;97691.66;;;20.08
78369;BMP280;71113;43.092;-89.268;2023-12-04T03:41:23;97684.81;;;20.07
78369;BMP280;71113;43.092;-89.268;2023-12-04T03:43:49;97683.66;;;20.05
78369;BMP280;71113;43.092;-89.268;2023-12-04T03:46:15;97682.09;;;20.04
78369;BMP280;71113;43.092;-89.268;2023-12-04T03:48:41;97694.56;;;20.03
78369;BMP280;71113;43.092;-89.268;2023-12-04T03:51:07;97696.00;;;20.01
78369;BMP280;71113;43.092;-89.268;2023-12-04T03:53:33;97697.75;;;19.97
78369;BMP280;71113;43.092;-89.268;2023-12-04T03:55:59;97700.00;;;19.95
78369;BMP280;71113;43.092;-89.268;2023-12-04T03:58:25;97711.72;;;19.94
78369;BMP280;71113;43.092;-89.268;2023-12-04T04:00:51;97705.97;;;19.92
78369;BMP280;71113;43.092;-89.268;2023-12-04T04:03:17;97714.25;;;19.90
78369;BMP280;71113;43.092;-89.268;2023-12-04T04:05:43;97718.78;;;19.90
78369;BMP280;71113;43.092;-89.268;2023-12-04T04:08:09;97717.22;;;19.89
78369;BMP280;71113;43.092;-89.268;2023-12-04T04:10:35;97721.00;;;19.88
78369;BMP280;71113;43.092;-89.268;2023-12-04T04:13:01;97732.69;;;19.87
78369;BMP280;71113;43.092;-89.268;2023-12-04T04:15:27;97728.50;;;19.86
78369;BMP280;71113;43.092;-89.268;2023-12-04T04:17:53;97734.09;;;19.84
78369;BMP280;71113;43.092;-89.268;2023-12-04T04:20:20;97742.41;;;19.83
78369;BMP280;71113;43.092;-89.268;2023-12-04T04:22:48;97741.66;;;19.82
78369;BMP280;71113;43.092;-89.268;2023-12-04T04:25:14;97746.47;;;19.80
78369;BMP280;71113;43.092;-89.268;2023-12-04T04:27:40;97754.31;;;19.76
78369;BMP280;71113;43.092;-89.268;2023-12-04T04:30:06;97750.13;;;19.75
78369;BMP280;71113;43.092;-89.268;2023-12-04T04:32:33;97753.13;;;19.74
78369;BMP280;71113;43.092;-89.268;2023-12-04T04:35:19;97760.63;;;19.72
78369;BMP280;71113;43.092;-89.268;2023-12-04T04:37:44;97755.66;;;19.70
78369;BMP280;71113;43.092;-89.268;2023-12-04T04:40:10;97760.53;;;19.68
78369;BMP280;71113;43.092;-89.268;2023-12-04T04:42:36;97754.47;;;19.68
78369;BMP280;71113;43.092;-89.268;2023-12-04T04:45:02;97762.75;;;19.66
78369;BMP280;71113;43.092;-89.268;2023-12-04T04:47:28;97761.53;;;19.64
78369;BMP280;71113;43.092;-89.268;2023-12-04T04:49:54;97757.78;;;19.65
78369;BMP280;71113;43.092;-89.268;2023-12-04T04:52:20;97760.34;;;19.61
78369;BMP280;71113;43.092;-89.268;2023-12-04T04:54:46;97770.16;;;19.61
78369;BMP280;71113;43.092;-89.268;2023-12-04T04:57:11;97768.91;;;19.58
78369;BMP280;71113;43.092;-89.268;2023-12-04T04:59:38;97766.97;;;19.55
78369;BMP280;71113;43.092;-89.268;2023-12-04T05:02:03;97767.38;;;19.57
78369;BMP280;71113;43.092;-89.268;2023-12-04T05:04:30;97769.28;;;19.57
78369;BMP280;71113;43.092;-89.268;2023-12-04T05:06:56;97766.16;;;19.55
78369;BMP280;71113;43.092;-89.268;2023-12-04T05:09:21;97767.28;;;19.54
78369;BMP280;71113;43.092;-89.268;2023-12-04T05:11:47;97771.78;;;19.53
78369;BMP280;71113;43.092;-89.268;2023-12-04T05:14:13;97780.84;;;19.52
78369;BMP280;71113;43.092;-89.268;2023-12-04T05:16:39;97774.34;;;19.49
78369;BMP280;71113;43.092;-89.268;2023-12-04T05:19:05;97776.56;;;19.47
78369;BMP280;71113;43.092;-89.268;2023-12-04T05:21:31;97774.22;;;19.46
78369;BMP280;71113;43.092;-89.268;2023-12-04T05:23:57;97778.44;;;19.47
78369;BMP280;71113;43.092;-89.268;2023-12-04T05:26:23;97777.97;;;19.45
78369;BMP280;71113;43.092;-89.268;2023-12-04T05:28:48;97787.03;;;19.44
78369;BMP280;71113;43.092;-89.268;2023-12-04T05:31:14;97783.94;;;19.42
78369;BMP280;71113;43.092;-89.268;2023-12-04T05:33:40;97790.34;;;19.41
78369;BMP280;71113;43.092;-89.268;2023-12-04T05:36:06;97788.47;;;19.41
78369;BMP280;71113;43.092;-89.268;2023-12-04T05:38:32;97786.47;;;19.38
78369;BMP280;71113;43.092;-89.268;2023-12-04T05:40:59;97778.88;;;19.37
78369;BMP280;71113;43.092;-89.268;2023-12-04T05:43:24;97786.81;;;19.37
78369;BMP280;71113;43.092;-89.268;2023-12-04T05:45:52;97790.56;;;19.36
78369;BMP280;71113;43.092;-89.268;2023-12-04T05:48:18;97787.47;;;19.34
78369;BMP280;71113;43.092;-89.268;2023-12-04T05:50:44;97792.00;;;19.33
78369;BMP280;71113;43.092;-89.268;2023-12-04T05:53:10;97784.72;;;19.30
78369;BMP280;71113;43.092;-89.268;2023-12-04T05:55:36;97793.41;;;19.31
78369;BMP280;71113;43.092;-89.268;2023-12-04T05:58:02;97794.88;;;19.28
78369;BMP280;71113;43.092;-89.268;2023-12-04T06:00:28;97785.69;;;19.26
78369;BMP280;71113;43.092;-89.268;2023-12-04T06:02:54;97791.75;;;19.26
78369;BMP280;71113;43.092;-89.268;2023-12-04T06:05:20;97786.47;;;19.26
78369;BMP280;71113;43.092;-89.268;2023-12-04T06:07:46;97793.19;;;19.24
78369;BMP280;71113;43.092;-89.268;2023-12-04T06:10:12;97788.25;;;19.22
78369;BMP280;71113;43.092;-89.268;2023-12-04T06:12:39;97786.38;;;19.23
78369;BMP280;71113;43.092;-89.268;2023-12-04T06:15:05;97782.19;;;19.22
78369;BMP280;71113;43.092;-89.268;2023-12-04T06:17:31;97788.59;;;19.21
78369;BMP280;71113;43.092;-89.268;2023-12-04T06:19:57;97785.47;;;19.18
78369;BMP280;71113;43.092;-89.268;2023-12-04T06:22:23;97782.06;;;19.18
78369;BMP280;71113;43.092;-89.268;2023-12-04T06:24:49;97781.31;;;19.17
78369;BMP280;71113;43.092;-89.268;2023-12-04T06:27:17;97777.13;;;19.16
78369;BMP280;71113;43.092;-89.268;2023-12-04T06:29:46;97773.69;;;19.16
78369;BMP280;71113;43.092;-89.268;2023-12-04T06:32:12;97772.50;;;19.13
78369;BMP280;71113;43.092;-89.268;2023-12-04T06:34:38;97767.19;;;19.13
78369;BMP280;71113;43.092;-89.268;2023-12-04T06:37:10;97764.13;;;19.11
78369;BMP280;71113;43.092;-89.268;2023-12-04T06:39:37;97764.44;;;19.10
78369;BMP280;71113;43.092;-89.268;2023-12-04T06:42:07;97767.88;;;19.10
78369;BMP280;71113;43.092;-89.268;2023-12-04T06:44:34;97763.69;;;19.09
78369;BMP280;71113;43.092;-89.268;2023-12-04T06:47:01;97758.69;;;19.08
78369;BMP280;71113;43.092;-89.268;2023-12-04T06:49:31;97765.13;;;19.07
78369;BMP280;71113;43.092;-89.268;2023-12-04T06:51:57;97759.38;;;19.05
78369;BMP280;71113;43.092;-89.268;2023-12-04T06:54:23;97764.69;;;19.05
78369;BMP280;71113;43.092;-89.268;2023-12-04T06:56:50;97764.97;;;19.03
78369;BMP280;71113;43.092;-89.268;2023-12-04T06:59:36;97761.16;;;19.01
78369;BMP280;71113;43.092;-89.268;2023-12-04T07:02:02;97766.75;;;18.99
78369;BMP280;71113;43.092;-89.268;2023-12-04T07:04:29;97761.81;;;18.98
78369;BMP280;71113;43.092;-89.268;2023-12-04T07:06:54;97772.38;;;18.98
78369;BMP280;71113;43.092;-89.268;2023-12-04T07:09:20;97778.44;;;18.98
78369;BMP280;71113;43.092;-89.268;2023-12-04T07:11:46;97781.38;;;18.97
78369;BMP280;71113;43.092;-89.268;2023-12-04T07:14:12;97777.97;;;18.96
78369;BMP280;71113;43.092;-89.268;2023-12-04T07:16:41;97779.06;;;18.95
78369;BMP280;71113;43.092;-89.268;2023-12-04T07:19:09;97784.38;;;18.95
78369;BMP280;71113;43.092;-89.268;2023-12-04T07:21:36;97771.03;;;18.92
78369;BMP280;71113;43.092;-89.268;2023-12-04T07:24:02;97779.75;;;18.92
78369;BMP280;71113;43.092;-89.268;2023-12-04T07:26:28;97774.78;;;18.91
78369;BMP280;71113;43.092;-89.268;2023-12-04T07:28:54;97773.56;;;18.88
78369;BMP280;71113;43.092;-89.268;2023-12-04T07:31:20;97776.22;;;18.88
78369;BMP280;71113;43.092;-89.268;2023-12-04T07:33:46;97787.13;;;18.86
78369;BMP280;71113;43.092;-89.268;2023-12-04T07:36:11;97784.91;;;18.88
78369;BMP280;71113;43.092;-89.268;2023-12-04T07:38:37;97788.66;;;18.87
78369;BMP280;71113;43.092;-89.268;2023-12-04T07:41:03;97785.91;;;18.84
78369;BMP280;71113;43.092;-89.268;2023-12-04T07:43:29;97792.63;;;18.81
78369;BMP280;71113;43.092;-89.268;2023-12-04T07:45:55;97795.25;;;18.81
78369;BMP280;71113;43.092;-89.268;2023-12-04T07:48:21;97791.41;;;18.79
78369;BMP280;71113;43.092;-89.268;2023-12-04T07:50:47;97795.56;;;18.80
78369;BMP280;71113;43.092;-89.268;2023-12-04T07:53:13;97804.25;;;18.80
78369;BMP280;71113;43.092;-89.268;2023-12-04T07:55:39;97806.50;;;18.78
78369;BMP280;71113;43.092;-89.268;2023-12-04T07:58:05;97799.97;;;18.76
78369;BMP280;71113;43.092;-89.268;2023-12-04T08:00:31;97806.00;;;18.76
78369;BMP280;71113;43.092;-89.268;2023-12-04T08:02:57;97804.91;;;18.77
78369;BMP280;71113;43.092;-89.268;2023-12-04T08:05:22;97805.25;;;18.76
78369;BMP280;71113;43.092;-89.268;2023-12-04T08:07:48;97800.31;;;18.74
78369;BMP280;71113;43.092;-89.268;2023-12-04T08:10:14;97802.84;;;18.71
78369;BMP280;71113;43.092;-89.268;2023-12-04T08:12:40;97797.56;;;18.71
78369;BMP280;71113;43.092;-89.268;2023-12-04T08:15:10;97798.63;;;18.70
78369;BMP280;71113;43.092;-89.268;2023-12-04T08:17:36;97805.78;;;18.69
78369;BMP280;71113;43.092;-89.268;2023-12-04T08:20:02;97807.22;;;18.67
78369;BMP280;71113;43.092;-89.268;2023-12-04T08:22:29;97804.25;;;18.68
78369;BMP280;71113;43.092;-89.268;2023-12-04T08:24:55;97804.25;;;18.68
78369;BMP280;71113;43.092;-89.268;2023-12-04T08:27:21;97807.22;;;18.67
78369;BMP280;71113;43.092;-89.268;2023-12-04T08:29:47;97808.31;;;18.66
78369;BMP280;71113;43.092;-89.268;2023-12-04T08:32:13;97804.56;;;18.67
78369;BMP280;71113;43.092;-89.268;2023-12-04T08:34:39;97809.41;;;18.65
78369;BMP280;71113;43.092;-89.268;2023-12-04T08:37:04;97812.06;;;18.65
78369;BMP280;71113;43.092;-89.268;2023-12-04T08:39:30;97800.25;;;18.62
78369;BMP280;71113;43.092;-89.268;2023-12-04T08:41:56;97797.59;;;18.62
78369;BMP280;71113;43.092;-89.268;2023-12-04T08:44:22;97798.72;;;18.61
78369;BMP280;71113;43.092;-89.268;2023-12-04T08:46:49;97794.53;;;18.60
78369;BMP280;71113;43.092;-89.268;2023-12-04T08:49:15;97790.38;;;18.59
78369;BMP280;71113;43.092;-89.268;2023-12-04T08:51:41;97791.78;;;18.56
78369;BMP280;71113;43.092;-89.268;2023-12-04T08:54:07;97787.25;;;18.57
78369;BMP280;71113;43.092;-89.268;2023-12-04T08:56:33;97787.13;;;18.53
78369;BMP280;71113;43.092;-89.268;2023-12-04T08:58:59;97789.78;;;18.53
78369;BMP280;71113;43.092;-89.268;2023-12-04T09:01:25;97799.56;;;18.53
78369;BMP280;71113;43.092;-89.268;2023-12-04T09:03:51;97793.50;;;18.52
78369;BMP280;71113;43.092;-89.268;2023-12-04T09:06:17;97802.22;;;18.53
78369;BMP280;71113;43.092;-89.268;2023-12-04T09:08:43;97801.44;;;18.52
78369;BMP280;71113;43.092;-89.268;2023-12-04T09:11:09;97804.44;;;18.51
78369;BMP280;71113;43.092;-89.268;2023-12-04T09:13:35;97803.63;;;18.50
78369;BMP280;71113;43.092;-89.268;2023-12-04T09:16:01;97798.69;;;18.49
78369;BMP280;71113;43.092;-89.268;2023-12-04T09:18:27;97792.63;;;18.48
78369;BMP280;71113;43.092;-89.268;2023-12-04T09:20:53;97800.56;;;18.48
78369;BMP280;71113;43.092;-89.268;2023-12-04T09:23:19;97803.19;;;18.48
78369;BMP280;71113;43.092;-89.268;2023-12-04T09:25:45;97800.56;;;18.48
78369;BMP280;71113;43.092;-89.268;2023-12-04T09:28:11;97804.31;;;18.47
78369;BMP280;71113;43.092;-89.268;2023-12-04T09:30:36;97808.34;;;18.45
78369;BMP280;71113;43.092;-89.268;2023-12-04T09:33:03;97803.06;;;18.45
78369;BMP280;71113;43.092;-89.268;2023-12-04T09:35:29;97803.84;;;18.45
78369;BMP280;71113;43.092;-89.268;2023-12-04T09:37:55;97804.94;;;18.44
78369;BMP280;71113;43.092;-89.268;2023-12-04T09:40:22;97796.56;;;18.42
78369;BMP280;71113;43.092;-89.268;2023-12-04T09:42:48;97802.97;;;18.41
78369;BMP280;71113;43.092;-89.268;2023-12-04T09:45:14;97796.91;;;18.41
78369;BMP280;71113;43.092;-89.268;2023-12-04T09:47:41;97798.00;;;18.40
78369;BMP280;71113;43.092;-89.268;2023-12-04T09:50:08;97795.66;;;18.38
78369;BMP280;71113;43.092;-89.268;2023-12-04T09:52:34;97798.00;;;18.40
78369;BMP280;71113;43.092;-89.268;2023-12-04T09:55:01;97790.38;;;18.38
78369;BMP280;71113;43.092;-89.268;2023-12-04T09:57:27;97787.72;;;18.38
78369;BMP280;71113;43.092;-89.268;2023-12-04T09:59:54;97789.97;;;18.36
78369;BMP280;71113;43.092;-89.268;2023-12-04T10:02:20;97789.19;;;18.36
78369;BMP280;71113;43.092;-89.268;2023-12-04T10:04:47;97787.31;;;18.36
78369;BMP280;71113;43.092;-89.268;2023-12-04T10:07:13;97790.25;;;18.35
78369;BMP280;71113;43.092;-89.268;2023-12-04T10:09:40;97791.34;;;18.34
78369;BMP280;71113;43.092;-89.268;2023-12-04T10:12:07;97787.97;;;18.33
78369;BMP280;71113;43.092;-89.268;2023-12-04T10:14:33;97788.72;;;18.34
78369;BMP280;71113;43.092;-89.268;2023-12-04T10:16:59;97789.84;;;18.33
78369;BMP280;71113;43.092;-89.268;2023-12-04T10:19:27;97802.28;;;18.32
78369;BMP280;71113;43.092;-89.268;2023-12-04T10:21:55;97805.69;;;18.33
78369;BMP280;71113;43.092;-89.268;2023-12-04T10:24:37;97802.56;;;18.31
78369;BMP280;71113;43.092;-89.268;2023-12-04T10:27:07;97804.44;;;18.30
78369;BMP280;71113;43.092;-89.268;2023-12-04T10:29:47;97801.78;;;18.30
78369;BMP280;71113;43.092;-89.268;2023-12-04T10:32:17;97795.31;;;18.28
78369;BMP280;71113;43.092;-89.268;2023-12-04T10:34:47;97799.81;;;18.27
78369;BMP280;71113;43.092;-89.268;2023-12-04T10:37:13;97802.44;;;18.27
78369;BMP280;71113;43.092;-89.268;2023-12-04T10:39:48;97802.78;;;18.25
78369;BMP280;71113;43.092;-89.268;2023-12-04T10:42:34;97808.81;;;18.26
78369;BMP280;71113;43.092;-89.268;2023-12-04T10:45:00;97813.34;;;18.25
78369;BMP280;71113;43.092;-89.268;2023-12-04T10:47:30;97817.06;;;18.24
78369;BMP280;71113;43.092;-89.268;2023-12-04T10:49:57;97804.53;;;18.21
78369;BMP280;71113;43.092;-89.268;2023-12-04T10:52:23;97814.75;;;18.23
78369;BMP280;71113;43.092;-89.268;2023-12-04T10:54:49;97807.72;;;18.27
78369;BMP280;71113;43.092;-89.268;2023-12-04T10:57:31;97817.00;;;18.33
78369;BMP280;71113;43.092;-89.268;2023-12-04T11:00:03;97816.16;;;18.41
78369;BMP280;71113;43.092;-89.268;2023-12-04T11:02:33;97811.78;;;18.45
78369;BMP280;71113;43.092;-89.268;2023-12-04T11:05:12;97815.78;;;18.51
78369;BMP280;71113;43.092;-89.268;2023-12-04T11:07:44;97821.94;;;18.55
78369;BMP280;71113;43.092;-89.268;2023-12-04T11:10:12;97824.03;;;18.62
78369;BMP280;71113;43.092;-89.268;2023-12-04T11:12:40;97819.97;;;18.65
78369;BMP280;71113;43.092;-89.268;2023-12-04T11:15:10;97823.63;;;18.72
78369;BMP280;71113;43.092;-89.268;2023-12-04T11:17:38;97825.63;;;18.75
78369;BMP280;71113;43.092;-89.268;2023-12-04T11:20:11;97829.63;;;18.81
78369;BMP280;71113;43.092;-89.268;2023-12-04T11:22:39;97841.84;;;18.86
78369;BMP280;71113;43.092;-89.268;2023-12-04T11:25:06;97843.81;;;18.89
78369;BMP280;71113;43.092;-89.268;2023-12-04T11:27:34;97851.97;;;18.96
78369;BMP280;71113;43.092;-89.268;2023-12-04T11:30:01;97850.22;;;19.00
78369;BMP280;71113;43.092;-89.268;2023-12-04T11:32:28;97848.47;;;19.04
78369;BMP280;71113;43.092;-89.268;2023-12-04T11:34:56;97860.41;;;19.10
78369;BMP280;71113;43.092;-89.268;2023-12-04T11:37:25;97861.28;;;19.14
78369;BMP280;71113;43.092;-89.268;2023-12-04T11:39:51;97867.91;;;19.21
78369;BMP280;71113;43.092;-89.268;2023-12-04T11:42:30;97875.97;;;19.24
78369;BMP280;71113;43.092;-89.268;2023-12-04T11:44:57;97873.88;;;19.30
78369;BMP280;71113;43.092;-89.268;2023-12-04T11:47:24;97883.31;;;19.31
78369;BMP280;71113;43.092;-89.268;2023-12-04T11:49:50;97874.41;;;19.35
78369;BMP280;71113;43.092;-89.268;2023-12-04T11:52:16;97878.50;;;19.45
78369;BMP280;71113;43.092;-89.268;2023-12-04T11:55:02;97873.44;;;19.52
78369;BMP280;71113;43.092;-89.268;2023-12-04T11:57:38;97875.84;;;19.57
78369;BMP280;71113;43.092;-89.268;2023-12-04T12:05:23;97889.84;;;19.45
78369;BMP280;71113;43.092;-89.268;2023-12-04T12:07:51;97894.38;;;19.45
78369;BMP280;71113;43.092;-89.268;2023-12-04T12:10:17;97893.59;;;19.44
78369;BMP280;71113;43.092;-89.268;2023-12-04T12:12:43;97886.44;;;19.45
78369;BMP280;71113;43.092;-89.268;2023-12-04T12:15:10;97892.59;;;19.49
78369;BMP280;71113;43.092;-89.268;2023-12-04T12:17:40;97893.16;;;19.55
78369;BMP280;71113;43.092;-89.268;2023-12-04T12:20:07;97891.97;;;19.64
78369;BMP280;71113;43.092;-89.268;2023-12-04T12:22:34;97890.53;;;19.67
78369;BMP280;71113;43.092;-89.268;2023-12-04T12:25:04;97894.59;;;19.64
78369;BMP280;71113;43.092;-89.268;2023-12-04T12:27:30;97893.06;;;19.63
78369;BMP280;71113;43.092;-89.268;2023-12-04T12:29:56;97897.91;;;19.61
78369;BMP280;71113;43.092;-89.268;2023-12-04T12:32:22;97900.56;;;19.61
78369;BMP280;71113;43.092;-89.268;2023-12-04T12:34:48;97897.91;;;19.61
78369;BMP280;71113;43.092;-89.268;2023-12-04T12:37:15;97895.28;;;19.61
78369;BMP280;71113;43.092;-89.268;2023-12-04T12:39:41;97902.44;;;19.61
78369;BMP280;71113;43.092;-89.268;2023-12-04T12:42:07;97905.53;;;19.63
78369;BMP280;71113;43.092;-89.268;2023-12-04T12:44:39;97901.88;;;19.67
78369;BMP280;71113;43.092;-89.268;2023-12-04T12:47:09;97902.13;;;19.74
78369;BMP280;71113;43.092;-89.268;2023-12-04T12:49:34;97905.75;;;19.82
78369;BMP280;71113;43.092;-89.268;2023-12-04T12:52:05;97904.66;;;19.83
78369;BMP280;71113;43.092;-89.268;2023-12-04T12:54:36;97906.41;;;19.79
78369;BMP280;71113;43.092;-89.268;2023-12-04T12:57:02;97916.22;;;19.78
78369;BMP280;71113;43.092;-89.268;2023-12-04T12:59:28;97913.59;;;19.78
78369;BMP280;71113;43.092;-89.268;2023-12-04T13:01:54;97914.66;;;19.77
78369;BMP280;71113;43.092;-89.268;2023-12-04T13:04:22;97910.47;;;19.76
78369;BMP280;71113;43.092;-89.268;2023-12-04T13:06:48;97912.34;;;19.76
78369;BMP280;71113;43.092;-89.268;2023-12-04T13:09:14;97916.88;;;19.75
78369;BMP280;71113;43.092;-89.268;2023-12-04T13:11:46;97916.88;;;19.75
78369;BMP280;71113;43.092;-89.268;2023-12-04T13:14:12;97919.50;;;19.75
78369;BMP280;71113;43.092;-89.268;2023-12-04T13:16:39;97925.13;;;19.74
78369;BMP280;71113;43.092;-89.268;2023-12-04T13:19:05;97925.94;;;19.74
78369;BMP280;71113;43.092;-89.268;2023-12-04T13:21:31;97924.69;;;19.72
78369;BMP280;71113;43.092;-89.268;2023-12-04T13:23:57;97921.28;;;19.71
78369;BMP280;71113;43.092;-89.268;2023-12-04T13:26:44;97916.31;;;19.70
78369;BMP280;71113;43.092;-89.268;2023-12-04T13:29:11;97915.88;;;19.68
78369;BMP280;71113;43.092;-89.268;2023-12-04T13:31:37;97924.25;;;19.70
78369;BMP280;71113;43.092;-89.268;2023-12-04T13:34:03;97928.78;;;19.69
78369;BMP280;71113;43.092;-89.268;2023-12-04T13:36:33;97928.34;;;19.67
78369;BMP280;71113;43.092;-89.268;2023-12-04T13:38:59;97917.00;;;19.67
78369;BMP280;71113;43.092;-89.268;2023-12-04T13:41:25;97931.31;;;19.66
78369;BMP280;71113;43.092;-89.268;2023-12-04T13:44:10;97928.69;;;19.66
78369;BMP280;71113;43.092;-89.268;2023-12-04T13:46:39;97930.09;;;19.63
78369;BMP280;71113;43.092;-89.268;2023-12-04T13:49:05;97917.94;;;19.62